Time;durP1;ratioP1;P1;durP2;ratioP2;P2;SDS_P1;SDS_P2;PMS_P1;PMS_P2;Temp;Humidity;BMP_temperature;BMP_pressure;BME280_temperature;BME280_humidity;BME280_pressure;Samples;Min_cycle;Max_cycle;Signal;HPM_P1;HPM_P2
2022/03/05 00:00:14;;;;;;;85.63;32.97;;;-0.70;99.90;;;;;;4994858;28;20192;-59
2022/03/05 00:02:39;;;;;;;75.30;30.73;;;-0.70;99.90;;;;;;4994710;28;20977;-58
2022/03/05 00:05:05;;;;;;;87.07;35.33;;;-0.70;99.90;;;;;;4993701;28;20192;-59
2022/03/05 00:07:32;;;;;;;87.63;34.70;;;-0.60;99.90;;;;;;4994423;28;20294;-59
2022/03/05 00:09:58;;;;;;;78.33;32.50;;;-0.70;99.90;;;;;;4994278;28;20188;-61
2022/03/05 00:12:23;;;;;;;76.77;31.07;;;-0.60;99.90;;;;;;4994887;28;20192;-59
2022/03/05 00:14:49;;;;;;;89.93;35.57;;;-0.60;99.90;;;;;;4994394;28;20212;-59
2022/03/05 00:17:15;;;;;;;82.27;33.93;;;-0.70;99.90;;;;;;4994341;28;20390;-59
2022/03/05 00:19:40;;;;;;;78.20;32.83;;;-0.70;99.90;;;;;;4994706;28;20183;-60
2022/03/05 00:22:06;;;;;;;74.57;31.07;;;-0.70;99.90;;;;;;4994140;28;20653;-60
2022/03/05 00:24:32;;;;;;;77.63;31.20;;;-0.70;99.90;;;;;;4994543;28;20223;-59
2022/03/05 00:26:58;;;;;;;72.43;27.33;;;-0.70;99.90;;;;;;4994268;28;20314;-59
2022/03/05 00:29:25;;;;;;;78.60;32.80;;;-0.60;99.90;;;;;;4993100;28;20835;-58
2022/03/05 00:31:51;;;;;;;72.17;29.03;;;-0.60;99.90;;;;;;4993989;28;20180;-60
2022/03/05 00:34:16;;;;;;;80.47;31.40;;;-0.60;99.90;;;;;;4994302;28;20206;-61
2022/03/05 00:36:42;;;;;;;82.53;32.07;;;-0.60;99.90;;;;;;4994273;28;20287;-60
2022/03/05 00:39:08;;;;;;;70.67;26.03;;;-0.60;99.90;;;;;;4993828;28;20327;-59
2022/03/05 00:41:34;;;;;;;74.27;30.43;;;-0.60;99.90;;;;;;4994099;28;20188;-63
2022/03/05 00:44:00;;;;;;;85.33;37.50;;;-0.60;99.90;;;;;;4993844;28;20192;-59
2022/03/05 00:46:25;;;;;;;75.57;30.90;;;-0.60;99.90;;;;;;4992703;28;20625;-60
2022/03/05 00:48:53;;;;;;;79.93;31.13;;;-0.60;99.90;;;;;;4993561;28;20639;-62
2022/03/05 00:51:19;;;;;;;67.63;25.43;;;-0.70;99.90;;;;;;4994290;28;20211;-58
2022/03/05 00:53:44;;;;;;;82.97;32.17;;;-0.70;99.90;;;;;;4993617;28;20202;-65
2022/03/05 00:56:10;;;;;;;62.77;26.30;;;-0.70;99.90;;;;;;4992596;28;20632;-59
2022/03/05 00:58:36;;;;;;;77.43;32.30;;;-0.70;99.90;;;;;;4992612;28;20184;-58
2022/03/05 01:01:02;;;;;;;78.23;32.10;;;-0.70;99.90;;;;;;4993589;28;20625;-59
2022/03/05 01:03:28;;;;;;;72.80;30.37;;;-0.80;99.90;;;;;;4993711;28;20176;-59
2022/03/05 01:05:54;;;;;;;75.03;31.20;;;-0.80;99.90;;;;;;4993360;28;20239;-59
2022/03/05 01:08:20;;;;;;;82.67;28.63;;;-0.80;99.90;;;;;;4993713;28;20614;-60
2022/03/05 01:10:46;;;;;;;74.00;30.53;;;-0.80;99.90;;;;;;4991685;28;20547;-60
2022/03/05 01:13:12;;;;;;;75.33;30.77;;;-0.80;99.90;;;;;;4993962;28;20187;-59
2022/03/05 01:15:38;;;;;;;81.17;31.13;;;-0.80;99.90;;;;;;4992430;28;20234;-61
2022/03/05 01:18:03;;;;;;;73.13;30.73;;;-0.80;99.90;;;;;;4980685;28;20399;-59
2022/03/05 01:20:29;;;;;;;81.03;34.40;;;-0.80;99.90;;;;;;4974276;28;20196;-60
2022/03/05 01:22:55;;;;;;;79.20;32.50;;;-0.80;99.90;;;;;;4974057;28;20177;-60
2022/03/05 01:25:21;;;;;;;70.83;30.53;;;-0.90;99.90;;;;;;4973961;28;20629;-61
2022/03/05 01:27:46;;;;;;;86.97;32.67;;;-0.90;99.90;;;;;;4973570;28;20641;-60
2022/03/05 01:30:12;;;;;;;80.37;33.67;;;-0.90;99.90;;;;;;4974132;28;20402;-59
2022/03/05 01:32:38;;;;;;;81.83;33.27;;;-0.90;99.90;;;;;;4973925;28;20181;-60
2022/03/05 01:35:05;;;;;;;69.53;25.37;;;-0.90;99.90;;;;;;4973485;28;20719;-60
2022/03/05 01:37:31;;;;;;;81.40;32.77;;;-0.90;99.90;;;;;;4973610;28;20240;-60
2022/03/05 01:39:57;;;;;;;80.73;32.03;;;-0.90;99.90;;;;;;4973127;28;20269;-60
2022/03/05 01:42:24;;;;;;;76.13;28.13;;;-0.90;99.90;;;;;;4973886;28;20279;-59
2022/03/05 01:44:50;;;;;;;89.37;32.37;;;-0.90;99.90;;;;;;4973432;28;20191;-59
2022/03/05 01:47:16;;;;;;;71.57;28.83;;;-0.90;99.90;;;;;;4972359;28;20232;-59
2022/03/05 01:49:42;;;;;;;71.30;29.53;;;-0.90;99.90;;;;;;4973427;28;20701;-59
2022/03/05 01:52:08;;;;;;;78.33;31.90;;;-0.90;99.90;;;;;;4973245;28;20308;-59
2022/03/05 01:54:34;;;;;;;71.63;30.00;;;-0.90;99.90;;;;;;4973320;28;20199;-61
2022/03/05 01:57:01;;;;;;;78.83;32.87;;;-0.80;99.90;;;;;;4972882;28;20224;-60
2022/03/05 01:59:27;;;;;;;88.97;34.07;;;-0.80;99.90;;;;;;4973210;28;20280;-59
2022/03/05 02:01:53;;;;;;;78.63;32.77;;;-0.80;99.90;;;;;;4972831;28;20204;-59
2022/03/05 02:04:19;;;;;;;79.03;31.07;;;-0.80;99.90;;;;;;4972971;28;20346;-59
2022/03/05 02:06:45;;;;;;;76.67;31.60;;;-0.80;99.90;;;;;;4972586;28;20240;-65
2022/03/05 02:09:11;;;;;;;80.87;32.33;;;-0.80;99.90;;;;;;4973205;28;20196;-61
2022/03/05 02:11:36;;;;;;;76.10;31.80;;;-0.80;99.90;;;;;;4973141;28;20197;-60
2022/03/05 02:14:02;;;;;;;70.27;30.83;;;-0.80;99.90;;;;;;4973010;28;20212;-60
2022/03/05 02:16:29;;;;;;;58.80;24.43;;;-0.80;99.90;;;;;;4973357;28;20204;-60
2022/03/05 02:18:55;;;;;;;83.23;34.23;;;-0.80;99.90;;;;;;4990242;28;20279;-65
2022/03/05 02:21:26;;;;;;;77.10;32.37;;;-0.80;99.90;;;;;;4992485;28;20266;-60
2022/03/05 02:23:52;;;;;;;82.33;32.93;;;-0.80;99.90;;;;;;4991960;28;20176;-60
2022/03/05 02:26:18;;;;;;;76.97;31.57;;;-0.80;99.90;;;;;;4992366;28;20184;-60
2022/03/05 02:28:44;;;;;;;54.90;22.57;;;-0.80;99.90;;;;;;4992207;28;20247;-60
2022/03/05 02:31:10;;;;;;;79.50;30.03;;;-0.80;99.90;;;;;;4992243;28;20200;-60
2022/03/05 02:33:37;;;;;;;78.13;31.17;;;-0.80;99.90;;;;;;4992096;28;20188;-59
2022/03/05 02:36:04;;;;;;;71.37;30.17;;;-0.70;99.90;;;;;;4991827;28;20195;-59
2022/03/05 02:38:30;;;;;;;52.77;22.63;;;-0.70;99.90;;;;;;4990562;28;20710;-62
2022/03/05 02:40:56;;;;;;;72.57;29.63;;;-0.70;99.90;;;;;;4991920;28;20255;-60
2022/03/05 02:43:22;;;;;;;76.37;31.57;;;-0.70;99.90;;;;;;4990724;28;20193;-59
2022/03/05 02:45:49;;;;;;;71.77;30.03;;;-0.80;99.90;;;;;;4991504;28;20189;-59
2022/03/05 02:48:17;;;;;;;64.93;27.23;;;-0.80;99.90;;;;;;4991946;28;20204;-59
2022/03/05 02:50:45;;;;;;;50.53;20.67;;;-0.80;99.90;;;;;;4991743;28;20215;-59
2022/03/05 02:53:11;;;;;;;69.07;28.67;;;-0.80;99.90;;;;;;4992013;28;20180;-59
2022/03/05 02:55:37;;;;;;;69.17;27.43;;;-0.80;99.90;;;;;;4990460;28;20203;-60
2022/03/05 02:58:03;;;;;;;64.27;28.13;;;-0.80;99.90;;;;;;4991787;28;20298;-59
2022/03/05 03:00:29;;;;;;;51.40;22.53;;;-0.80;99.90;;;;;;4992119;28;20315;-60
2022/03/05 03:02:55;;;;;;;65.93;26.43;;;-0.80;99.90;;;;;;4991881;28;20204;-60
2022/03/05 03:05:21;;;;;;;67.60;26.20;;;-0.80;99.90;;;;;;4991500;28;20274;-61
2022/03/05 03:07:48;;;;;;;62.53;24.60;;;-0.90;99.90;;;;;;4991328;28;20302;-58
2022/03/05 03:10:15;;;;;;;63.07;26.37;;;-0.90;99.90;;;;;;4992123;28;20176;-58
2022/03/05 03:12:42;;;;;;;65.50;25.97;;;-0.80;99.90;;;;;;4991686;28;20200;-59
2022/03/05 03:15:12;;;;;;;65.43;25.77;;;-0.90;99.90;;;;;;4991690;28;20188;-60
2022/03/05 03:17:49;;;;;;;62.60;24.30;;;-0.80;99.90;;;;;;4984206;28;20241;-60
2022/03/05 03:20:26;;;;;;;63.70;27.03;;;-0.80;99.90;;;;;;4972199;28;20658;-65
2022/03/05 03:22:52;;;;;;;61.73;29.50;;;-0.80;99.90;;;;;;4972383;28;20194;-58
2022/03/05 03:25:18;;;;;;;70.37;26.37;;;-0.80;99.90;;;;;;4972344;28;20188;-60
2022/03/05 03:27:45;;;;;;;65.43;26.10;;;-0.90;99.90;;;;;;4972324;28;20192;-66
2022/03/05 03:30:12;;;;;;;63.70;25.70;;;-0.90;99.90;;;;;;4972279;28;20197;-60
2022/03/05 03:32:39;;;;;;;60.83;24.70;;;-0.90;99.90;;;;;;4972291;28;20231;-61
2022/03/05 03:35:06;;;;;;;52.90;22.07;;;-0.90;99.90;;;;;;4972052;28;20181;-59
2022/03/05 03:37:32;;;;;;;47.17;19.33;;;-1.00;99.90;;;;;;4970997;28;20308;-59
2022/03/05 03:39:59;;;;;;;51.57;23.30;;;-1.00;99.90;;;;;;4957958;28;20268;-60
2022/03/05 03:42:25;;;;;;;58.50;24.20;;;-1.00;99.90;;;;;;4975642;28;20192;-59
2022/03/05 03:44:51;;;;;;;50.37;20.87;;;-1.00;99.90;;;;;;4975406;28;20235;-59
2022/03/05 03:47:19;;;;;;;49.50;20.53;;;-0.90;99.90;;;;;;4975577;28;20193;-60
2022/03/05 03:49:45;;;;;;;47.57;21.17;;;-0.90;99.90;;;;;;4975214;28;20634;-61
2022/03/05 03:52:13;;;;;;;48.80;21.73;;;-0.90;99.90;;;;;;4975576;28;20191;-60
2022/03/05 03:54:40;;;;;;;51.03;21.13;;;-0.90;99.90;;;;;;4975534;28;20649;-60
2022/03/05 03:57:05;;;;;;;46.63;21.03;;;-0.90;99.90;;;;;;4974131;28;20232;-60
2022/03/05 03:59:31;;;;;;;48.13;19.77;;;-0.90;99.90;;;;;;4974318;28;20306;-59
2022/03/05 04:01:57;;;;;;;45.80;19.40;;;-0.90;99.90;;;;;;4975388;28;20180;-59
2022/03/05 04:04:23;;;;;;;49.47;20.53;;;-0.90;99.90;;;;;;4974157;28;20185;-60
2022/03/05 04:09:33;;;;;;;50.60;19.77;;;-1.00;99.90;;;;;;4975369;28;20208;-61
2022/03/05 04:12:00;;;;;;;41.37;16.43;;;-1.00;99.90;;;;;;4974809;28;20201;-61
2022/03/05 04:14:25;;;;;;;39.30;16.33;;;-1.00;99.90;;;;;;4975413;28;20204;-60
2022/03/05 04:16:51;;;;;;;47.20;18.13;;;-1.00;99.90;;;;;;4976131;28;20208;-60
2022/03/05 04:19:17;;;;;;;49.80;19.63;;;-1.00;99.90;;;;;;4994703;28;20203;-60
2022/03/05 04:21:43;;;;;;;46.20;19.23;;;-1.00;99.90;;;;;;4994467;28;20191;-60
2022/03/05 04:24:08;;;;;;;50.30;20.77;;;-1.00;99.90;;;;;;4993258;28;20255;-60
2022/03/05 04:26:34;;;;;;;45.67;17.10;;;-1.00;99.90;;;;;;4994294;28;20192;-60
2022/03/05 04:29:00;;;;;;;45.00;19.63;;;-1.00;99.90;;;;;;4992854;28;20684;-59
2022/03/05 04:31:26;;;;;;;47.57;18.07;;;-1.00;99.90;;;;;;4994182;28;20185;-59
2022/03/05 04:33:51;;;;;;;44.93;18.80;;;-1.00;99.90;;;;;;4994193;28;20543;-59
2022/03/05 04:36:17;;;;;;;48.50;20.20;;;-1.00;99.90;;;;;;4994135;28;20315;-59
2022/03/05 04:38:43;;;;;;;51.47;20.03;;;-1.00;99.90;;;;;;4994317;28;20191;-59
2022/03/05 04:41:08;;;;;;;55.37;18.73;;;-1.00;99.90;;;;;;4993935;28;20176;-59
2022/03/05 04:43:34;;;;;;;49.27;19.80;;;-0.90;99.90;;;;;;4993895;28;20187;-59
2022/03/05 04:46:00;;;;;;;49.23;19.43;;;-0.90;99.90;;;;;;4993933;28;20200;-60
2022/03/05 04:48:25;;;;;;;54.43;19.87;;;-0.90;99.90;;;;;;4994074;28;20658;-60
2022/03/05 04:50:52;;;;;;;45.53;18.20;;;-0.90;99.90;;;;;;4993887;28;20184;-60
2022/03/05 04:53:20;;;;;;;46.17;20.20;;;-0.90;99.90;;;;;;4992705;28;20180;-60
2022/03/05 04:55:47;;;;;;;47.10;20.03;;;-0.90;99.90;;;;;;4993486;28;20196;-60
2022/03/05 04:58:13;;;;;;;50.33;20.80;;;-0.90;99.90;;;;;;4993855;28;20212;-60
2022/03/05 05:00:38;;;;;;;47.80;19.57;;;-1.00;99.90;;;;;;4993585;28;20260;-60
2022/03/05 05:03:04;;;;;;;48.60;21.90;;;-0.90;99.90;;;;;;4993118;28;20215;-60
2022/03/05 05:05:30;;;;;;;48.53;21.47;;;-1.00;99.90;;;;;;4993627;28;20184;-59
2022/03/05 05:07:56;;;;;;;51.90;22.13;;;-0.90;99.90;;;;;;4993844;28;20192;-61
2022/03/05 05:10:22;;;;;;;46.53;19.60;;;-0.90;99.90;;;;;;4993727;28;20554;-60
2022/03/05 05:12:47;;;;;;;54.97;20.63;;;-0.90;99.90;;;;;;4992619;28;20227;-59
2022/03/05 05:15:13;;;;;;;42.77;17.37;;;-0.80;99.90;;;;;;4994060;28;20180;-59
2022/03/05 05:17:39;;;;;;;44.67;18.80;;;-0.90;99.90;;;;;;4985416;28;20208;-60
2022/03/05 05:20:07;;;;;;;49.17;20.00;;;-0.90;99.90;;;;;;4973655;28;20641;-60
2022/03/05 05:22:33;;;;;;;50.47;19.27;;;-1.00;99.90;;;;;;4974142;28;20197;-60
2022/03/05 05:24:59;;;;;;;46.93;19.50;;;-0.90;99.90;;;;;;4971946;28;20212;-60
2022/03/05 05:27:26;;;;;;;43.67;16.43;;;-0.90;99.90;;;;;;4973633;28;20199;-60
2022/03/05 05:29:51;;;;;;;45.10;17.30;;;-0.90;99.90;;;;;;4973705;28;20575;-60
2022/03/05 05:32:17;;;;;;;34.17;13.67;;;-1.00;99.90;;;;;;4973667;28;20193;-59
2022/03/05 05:34:43;;;;;;;46.43;19.30;;;-1.00;99.90;;;;;;4973790;28;20610;-62
2022/03/05 05:37:10;;;;;;;45.13;17.67;;;-1.00;99.90;;;;;;4972462;28;20220;-60
2022/03/05 05:39:36;;;;;;;48.33;19.10;;;-1.00;99.90;;;;;;4973166;28;20251;-59
2022/03/05 05:42:02;;;;;;;47.93;20.43;;;-1.00;99.90;;;;;;4973164;28;20626;-60
2022/03/05 05:44:27;;;;;;;46.03;18.77;;;-1.00;99.90;;;;;;4973322;28;20216;-60
2022/03/05 05:46:53;;;;;;;45.53;18.63;;;-1.00;99.90;;;;;;4973289;28;20562;-59
2022/03/05 05:49:19;;;;;;;44.13;17.27;;;-0.90;99.90;;;;;;4973085;28;20181;-60
2022/03/05 05:51:45;;;;;;;38.43;15.77;;;-0.90;99.90;;;;;;4972775;28;20190;-60
2022/03/05 05:54:10;;;;;;;39.37;17.20;;;-0.90;99.90;;;;;;4972977;28;20192;-59
2022/03/05 05:56:36;;;;;;;48.97;17.83;;;-0.90;99.90;;;;;;4972630;28;20274;-59
2022/03/05 05:59:04;;;;;;;34.83;14.57;;;-0.90;99.90;;;;;;4971272;28;20239;-59
2022/03/05 06:01:29;;;;;;;34.37;15.37;;;-0.90;99.90;;;;;;4971618;28;20539;-60
2022/03/05 06:03:56;;;;;;;39.43;16.07;;;-0.90;99.90;;;;;;4972608;28;20219;-60
2022/03/05 06:06:22;;;;;;;40.00;16.80;;;-0.90;99.90;;;;;;4972595;28;20252;-60
2022/03/05 06:08:48;;;;;;;35.97;15.03;;;-0.90;99.90;;;;;;4970581;28;20192;-62
2022/03/05 06:11:14;;;;;;;32.87;13.97;;;-0.80;99.90;;;;;;4972317;28;20192;-60
2022/03/05 06:13:40;;;;;;;29.83;13.60;;;-0.80;99.90;;;;;;4972754;28;20192;-60
2022/03/05 06:16:06;;;;;;;27.77;12.33;;;-0.80;99.90;;;;;;4972557;28;20180;-60
2022/03/05 06:18:33;;;;;;;25.67;10.73;;;-0.70;99.90;;;;;;4987649;28;20310;-60
2022/03/05 06:20:59;;;;;;;29.33;13.40;;;-0.70;99.90;;;;;;4990513;28;20188;-62
2022/03/05 06:23:25;;;;;;;31.17;12.60;;;-0.70;99.90;;;;;;4992080;28;20180;-59
2022/03/05 06:25:51;;;;;;;32.73;11.60;;;-0.70;99.90;;;;;;4990464;28;20180;-62
2022/03/05 06:28:18;;;;;;;25.77;10.97;;;-0.70;99.90;;;;;;4990372;28;20184;-60
2022/03/05 06:30:44;;;;;;;30.97;12.53;;;-0.70;99.90;;;;;;4991573;28;20180;-66
2022/03/05 06:33:10;;;;;;;26.97;11.73;;;-0.60;99.90;;;;;;4992027;28;20278;-60
2022/03/05 06:35:35;;;;;;;28.20;12.80;;;-0.50;99.90;;;;;;4992062;28;20210;-61
2022/03/05 06:38:01;;;;;;;25.37;11.77;;;-0.40;99.90;;;;;;4991456;28;20608;-58
2022/03/05 06:40:27;;;;;;;26.93;13.47;;;-0.40;99.90;;;;;;4991742;28;20239;-60
2022/03/05 06:42:54;;;;;;;25.63;11.80;;;-0.40;99.90;;;;;;4991651;28;20525;-59
2022/03/05 06:45:21;;;;;;;21.07;8.70;;;-0.30;99.90;;;;;;4990459;28;20267;-60
2022/03/05 06:47:47;;;;;;;25.90;11.30;;;-0.20;99.90;;;;;;4990714;28;20598;-60
2022/03/05 06:50:13;;;;;;;20.75;10.98;;;-0.30;99.90;;;;;;4991379;28;20305;-60
2022/03/05 06:52:39;;;;;;;25.07;11.13;;;-0.20;99.90;;;;;;4991205;28;20183;-60
2022/03/05 06:55:06;;;;;;;26.37;11.87;;;-0.10;99.90;;;;;;4989963;28;20210;-61
2022/03/05 06:57:32;;;;;;;25.87;11.10;;;-0.10;99.90;;;;;;4991317;28;20311;-61
2022/03/05 06:59:57;;;;;;;23.50;10.27;;;0.00;99.90;;;;;;4991265;28;20272;-60
2022/03/05 07:02:23;;;;;;;24.27;11.40;;;0.00;99.90;;;;;;4990047;28;20185;-64
2022/03/05 07:04:49;;;;;;;23.47;10.97;;;0.00;99.90;;;;;;4990020;28;20239;-63
2022/03/05 07:07:16;;;;;;;24.30;12.27;;;0.10;99.90;;;;;;4991527;28;20244;-63
2022/03/05 07:09:41;;;;;;;24.30;11.50;;;0.20;99.90;;;;;;4991674;28;20642;-64
2022/03/05 07:12:09;;;;;;;24.80;11.07;;;0.30;99.90;;;;;;4996449;28;20212;-64
2022/03/05 07:14:35;;;;;;;18.27;9.53;;;0.10;99.90;;;;;;5002449;28;20234;-64
2022/03/05 07:17:03;;;;;;;21.30;8.10;;;-0.10;99.90;;;;;;5003182;28;20315;-63
2022/03/05 07:19:28;;;;;;;17.97;8.97;;;-0.10;99.90;;;;;;5002935;28;20632;-65
2022/03/05 07:21:54;;;;;;;19.63;8.80;;;0.00;99.90;;;;;;5003026;28;20206;-64
2022/03/05 07:24:20;;;;;;;18.53;8.37;;;0.00;99.90;;;;;;5002488;28;20645;-65
2022/03/05 07:26:46;;;;;;;16.97;8.37;;;0.00;99.90;;;;;;5004500;28;20692;-70
2022/03/05 07:29:12;;;;;;;18.60;8.27;;;0.00;99.90;;;;;;5003668;28;20196;-75
2022/03/05 07:31:38;;;;;;;17.50;8.60;;;0.00;99.90;;;;;;5000020;28;20530;-63
2022/03/05 07:34:04;;;;;;;18.90;8.33;;;0.30;99.90;;;;;;5000759;28;20192;-69
2022/03/05 07:36:30;;;;;;;15.63;7.23;;;0.20;99.90;;;;;;5000565;28;20664;-68
2022/03/05 07:38:56;;;;;;;15.23;8.40;;;0.30;99.90;;;;;;5001110;28;20200;-61
2022/03/05 07:41:22;;;;;;;18.13;9.50;;;0.30;99.90;;;;;;5001461;28;20583;-62
2022/03/05 07:43:48;;;;;;;19.20;8.93;;;0.40;99.90;;;;;;5001641;28;20204;-63
2022/03/05 07:46:13;;;;;;;16.00;7.80;;;0.60;99.90;;;;;;4997538;28;20534;-62
2022/03/05 07:48:39;;;;;;;17.87;8.67;;;0.60;99.90;;;;;;4984089;28;20200;-61
2022/03/05 07:51:06;;;;;;;21.20;9.50;;;0.60;99.90;;;;;;5002505;28;20188;-61
2022/03/05 07:53:32;;;;;;;20.13;8.87;;;0.70;99.90;;;;;;5000613;28;20221;-66
2022/03/05 07:55:59;;;;;;;17.97;8.37;;;0.90;99.90;;;;;;5001380;28;20652;-64
2022/03/05 07:58:25;;;;;;;19.63;9.23;;;0.80;99.90;;;;;;5002744;28;20211;-60
2022/03/05 08:00:50;;;;;;;18.00;8.03;;;0.70;99.90;;;;;;4999546;28;20309;-61
2022/03/05 08:03:16;;;;;;;19.27;8.70;;;0.60;99.90;;;;;;5003334;28;20315;-60
2022/03/05 08:05:43;;;;;;;16.00;7.53;;;0.90;99.90;;;;;;5002742;28;20707;-62
2022/03/05 08:08:09;;;;;;;15.93;7.13;;;0.80;99.90;;;;;;5002486;28;20288;-57
2022/03/05 08:10:35;;;;;;;22.17;8.23;;;0.70;99.90;;;;;;5000353;28;20200;-65
2022/03/05 08:13:02;;;;;;;16.27;7.77;;;0.60;99.90;;;;;;5003119;28;20229;-64
2022/03/05 08:15:27;;;;;;;16.10;7.80;;;0.80;99.90;;;;;;4999770;28;20268;-72
2022/03/05 08:17:58;;;;;;;15.87;8.17;;;1.00;99.90;;;;;;4987205;28;20679;-63
2022/03/05 08:20:27;;;;;;;13.77;6.40;;;1.20;99.90;;;;;;5012245;28;20187;-66
2022/03/05 08:22:54;;;;;;;16.50;7.13;;;1.10;99.90;;;;;;4995338;28;20196;-65
2022/03/05 08:25:21;;;;;;;15.57;7.13;;;1.10;99.90;;;;;;5004974;28;20181;-66
2022/03/05 08:27:47;;;;;;;15.83;6.93;;;1.10;99.90;;;;;;4987199;28;20203;-67
2022/03/05 08:30:14;;;;;;;12.63;6.80;;;1.30;99.90;;;;;;4981239;28;20183;-67
2022/03/05 08:32:39;;;;;;;14.33;6.40;;;1.10;99.90;;;;;;4985022;28;20241;-66
2022/03/05 08:35:07;;;;;;;10.27;5.47;;;1.00;99.90;;;;;;4982490;28;20191;-66
2022/03/05 08:37:34;;;;;;;11.90;5.00;;;1.20;99.90;;;;;;4989361;28;20208;-65
2022/03/05 08:39:59;;;;;;;7.27;3.93;;;1.20;99.90;;;;;;5013090;28;20188;-67
2022/03/05 08:42:25;;;;;;;12.00;5.87;;;1.10;99.90;;;;;;4984899;28;20611;-64
2022/03/05 08:44:51;;;;;;;11.77;5.30;;;1.30;99.90;;;;;;5011037;28;20189;-67
2022/03/05 08:47:17;;;;;;;14.47;6.13;;;1.80;99.90;;;;;;4986608;28;20190;-69
2022/03/05 08:49:43;;;;;;;13.97;5.50;;;1.80;99.90;;;;;;5012991;28;20255;-69
2022/03/05 08:52:09;;;;;;;12.20;6.40;;;1.80;99.90;;;;;;4985970;28;20234;-61
2022/03/05 08:54:36;;;;;;;20.33;7.53;;;1.60;99.90;;;;;;5011187;28;20597;-60
2022/03/05 08:57:02;;;;;;;13.80;7.90;;;1.70;99.90;;;;;;4987718;28;20692;-66
2022/03/05 08:59:28;;;;;;;14.93;6.90;;;1.70;99.90;;;;;;5025523;28;20206;-61
2022/03/05 09:01:54;;;;;;;16.27;7.97;;;1.80;99.90;;;;;;4988324;28;20196;-60
2022/03/05 09:04:20;;;;;;;13.70;7.30;;;1.80;99.90;;;;;;5008250;28;20210;-61
2022/03/05 09:06:46;;;;;;;17.20;8.20;;;1.90;99.90;;;;;;4991096;28;20614;-60
2022/03/05 09:09:12;;;;;;;21.87;8.70;;;1.80;99.90;;;;;;4988770;28;20186;-65
2022/03/05 09:11:38;;;;;;;21.27;9.00;;;1.50;99.90;;;;;;4993968;28;20203;-63
2022/03/05 09:14:05;;;;;;;19.60;8.47;;;1.40;99.90;;;;;;4972054;28;20187;-63
2022/03/05 09:16:31;;;;;;;17.43;9.10;;;1.30;99.90;;;;;;4972965;28;20191;-60
2022/03/05 09:18:57;;;;;;;16.80;9.00;;;1.30;99.90;;;;;;4990883;28;20190;-63
2022/03/05 09:21:23;;;;;;;23.03;11.47;;;1.30;99.90;;;;;;4991907;28;20196;-66
2022/03/05 09:23:48;;;;;;;23.57;10.60;;;1.20;99.90;;;;;;5001327;28;20200;-67
2022/03/05 09:26:15;;;;;;;25.50;12.40;;;1.20;99.90;;;;;;4998876;28;20201;-75
2022/03/05 09:28:41;;;;;;;23.97;11.73;;;1.20;99.90;;;;;;5000353;28;20963;-65
2022/03/05 09:31:07;;;;;;;30.70;12.30;;;1.20;99.90;;;;;;5000738;28;20191;-68
2022/03/05 09:33:33;;;;;;;23.43;11.20;;;1.40;99.90;;;;;;5000115;28;20718;-61
2022/03/05 09:35:59;;;;;;;20.47;10.07;;;1.40;99.90;;;;;;4999558;28;20197;-63
2022/03/05 09:38:25;;;;;;;21.00;8.67;;;1.60;99.90;;;;;;4999342;28;20215;-67
2022/03/05 09:40:51;;;;;;;19.43;7.87;;;1.80;99.90;;;;;;4999679;28;20232;-61
2022/03/05 09:43:21;;;;;;;16.40;7.47;;;1.70;99.90;;;;;;5001110;28;20297;-61
2022/03/05 09:45:47;;;;;;;16.73;6.90;;;1.70;99.90;;;;;;4998776;28;20195;-64
2022/03/05 09:48:15;;;;;;;25.53;8.07;;;1.70;99.90;;;;;;5013984;28;20199;-62
2022/03/05 09:50:42;;;;;;;19.77;8.73;;;1.80;99.90;;;;;;5000604;28;20179;-63
2022/03/05 09:53:08;;;;;;;16.13;7.43;;;1.90;99.90;;;;;;5000422;28;20821;-66
2022/03/05 09:55:34;;;;;;;25.20;8.60;;;1.90;99.90;;;;;;4999162;28;20282;-61
2022/03/05 09:57:59;;;;;;;20.87;7.40;;;2.10;99.90;;;;;;4998442;28;20242;-61
2022/03/05 10:00:26;;;;;;;15.83;7.23;;;2.30;99.90;;;;;;5000810;28;20249;-61
2022/03/05 10:02:52;;;;;;;23.30;8.47;;;2.40;99.90;;;;;;4999914;28;20203;-61
2022/03/05 10:05:29;;;;;;;28.70;8.63;;;2.60;99.90;;;;;;4996965;28;20761;-63
2022/03/05 10:08:07;;;;;;;14.50;5.50;;;2.60;99.90;;;;;;4998046;28;20300;-64
2022/03/05 10:11:05;;;;;;;18.07;6.60;;;2.70;99.90;;;;;;4996754;28;20651;-63
2022/03/05 10:13:32;;;;;;;21.43;6.80;;;2.60;99.90;;;;;;4995892;28;20514;-64
2022/03/05 10:16:01;;;;;;;13.30;6.30;;;2.50;99.90;;;;;;4997771;28;20190;-64
2022/03/05 10:18:28;;;;;;;16.97;9.37;;;2.30;99.90;;;;;;4996710;28;20237;-62
2022/03/05 10:20:54;;;;;;;21.40;7.27;;;2.20;99.90;;;;;;4997023;28;20181;-72
2022/03/05 10:23:20;;;;;;;22.30;6.93;;;2.00;99.90;;;;;;4996958;28;20198;-61
2022/03/05 10:25:56;;;;;;;13.50;6.33;;;2.00;99.90;;;;;;4999994;28;20693;-61
2022/03/05 10:28:27;;;;;;;11.63;5.83;;;1.90;99.90;;;;;;4999962;28;20549;-60
2022/03/05 10:30:53;;;;;;;10.83;5.67;;;1.90;99.90;;;;;;4998840;28;20276;-62
2022/03/05 10:33:29;;;;;;;8.50;4.83;;;1.90;99.90;;;;;;5000303;28;20773;-60
2022/03/05 10:35:56;;;;;;;18.63;6.77;;;1.90;99.90;;;;;;4999673;28;20195;-68
2022/03/05 10:38:24;;;;;;;14.83;6.97;;;1.70;99.90;;;;;;5000334;28;20214;-61
2022/03/05 10:40:57;;;;;;;15.60;5.57;;;1.70;99.90;;;;;;4999705;28;20190;-61
2022/03/05 10:43:24;;;;;;;20.63;7.23;;;1.80;99.90;;;;;;4999203;28;20287;-60
2022/03/05 10:45:54;;;;;;;13.93;6.63;;;2.30;99.90;;;;;;4995901;28;20257;-62
2022/03/05 10:48:30;;;;;;;11.47;5.97;;;2.60;99.90;;;;;;4989904;28;20180;-62
2022/03/05 10:51:02;;;;;;;24.43;7.40;;;2.80;99.90;;;;;;4989181;28;20660;-63
2022/03/05 10:53:41;;;;;;;13.90;6.73;;;3.00;99.90;;;;;;4990476;28;20530;-61
2022/03/05 10:56:26;;;;;;;16.23;6.73;;;3.10;99.90;;;;;;4991438;28;20199;-61
2022/03/05 10:59:22;;;;;;;13.13;6.97;;;3.00;99.90;;;;;;4989923;28;20573;-62
2022/03/05 11:01:48;;;;;;;12.90;6.53;;;2.40;99.90;;;;;;4982331;28;20203;-60
2022/03/05 11:04:15;;;;;;;18.60;7.07;;;2.20;99.90;;;;;;4991348;28;20699;-63
2022/03/05 11:06:44;;;;;;;14.30;6.27;;;2.30;99.90;;;;;;4990948;28;20330;-60
2022/03/05 11:09:11;;;;;;;9.70;5.50;;;2.40;99.90;;;;;;4990740;28;20218;-62
2022/03/05 11:11:42;;;;;;;11.97;5.50;;;2.30;99.90;;;;;;4990859;28;20188;-63
2022/03/05 11:14:14;;;;;;;9.53;5.13;;;2.50;99.90;;;;;;4988996;28;20209;-61
2022/03/05 11:16:41;;;;;;;9.13;4.87;;;2.40;99.90;;;;;;4989186;28;20217;-63
2022/03/05 11:19:08;;;;;;;11.33;6.13;;;2.20;99.90;;;;;;4971195;28;20316;-61
2022/03/05 11:21:34;;;;;;;11.80;5.93;;;2.20;99.90;;;;;;4986362;28;20177;-62
2022/03/05 11:24:01;;;;;;;13.80;6.30;;;2.20;99.90;;;;;;4971433;28;20188;-60
2022/03/05 11:26:30;;;;;;;13.57;5.63;;;2.40;99.90;;;;;;4986367;28;20231;-61
2022/03/05 11:28:57;;;;;;;19.53;6.87;;;2.40;99.90;;;;;;4971518;28;20181;-63
2022/03/05 11:31:30;;;;;;;21.53;6.87;;;2.50;99.90;;;;;;4971518;28;20583;-62
2022/03/05 11:34:09;;;;;;;13.53;6.23;;;2.50;99.90;;;;;;4971400;28;20239;-62
2022/03/05 11:36:36;;;;;;;19.20;6.90;;;2.40;99.90;;;;;;4970836;28;20652;-64
2022/03/05 11:39:10;;;;;;;10.13;5.13;;;2.40;99.90;;;;;;4971219;28;20195;-62
2022/03/05 11:42:09;;;;;;;12.77;5.20;;;2.00;99.90;;;;;;4971210;28;20192;-62
2022/03/05 11:44:39;;;;;;;16.93;5.33;;;2.00;99.90;;;;;;4971053;28;20247;-61
2022/03/05 11:47:24;;;;;;;13.90;6.07;;;2.10;99.90;;;;;;4969602;28;20616;-60
2022/03/05 11:49:59;;;;;;;14.73;6.70;;;2.20;99.90;;;;;;4970934;28;20263;-61
2022/03/05 11:52:40;;;;;;;13.23;6.60;;;2.00;99.90;;;;;;4970438;28;20262;-60
2022/03/05 11:55:16;;;;;;;16.97;6.33;;;2.10;99.90;;;;;;4971072;28;20280;-61
2022/03/05 11:57:51;;;;;;;18.03;6.47;;;2.10;99.90;;;;;;4970807;28;20212;-63
2022/03/05 12:00:31;;;;;;;13.07;6.17;;;2.40;99.90;;;;;;4972958;28;20649;-61
2022/03/05 12:02:58;;;;;;;12.77;5.87;;;2.30;99.90;;;;;;4974588;28;20687;-65
2022/03/05 12:05:40;;;;;;;11.57;5.90;;;2.10;99.90;;;;;;4974480;28;20193;-60
2022/03/05 12:08:10;;;;;;;8.97;4.63;;;1.90;99.90;;;;;;4974128;28;20226;-62
2022/03/05 12:10:40;;;;;;;11.83;5.07;;;1.70;99.90;;;;;;4974092;28;20181;-60
2022/03/05 12:13:10;;;;;;;14.13;7.00;;;1.60;99.90;;;;;;4972763;28;20181;-59
2022/03/05 12:15:44;;;;;;;12.00;6.43;;;1.60;99.90;;;;;;4974449;28;20185;-64
2022/03/05 12:18:15;;;;;;;9.07;4.27;;;1.50;99.90;;;;;;4985945;28;20557;-62
2022/03/05 12:20:45;;;;;;;14.10;5.87;;;1.50;99.90;;;;;;4993906;28;20269;-62
2022/03/05 12:23:16;;;;;;;10.87;5.37;;;1.40;99.90;;;;;;4993635;28;20180;-61
2022/03/05 12:25:45;;;;;;;10.63;6.07;;;1.40;99.90;;;;;;4994151;28;20182;-64
2022/03/05 12:28:19;;;;;;;11.77;6.03;;;1.30;99.90;;;;;;4993258;28;20238;-60
2022/03/05 12:30:46;;;;;;;17.43;6.37;;;1.40;99.90;;;;;;4993737;28;20178;-60
2022/03/05 12:33:14;;;;;;;15.83;5.87;;;1.50;99.90;;;;;;4993227;28;20206;-61
2022/03/05 12:35:43;;;;;;;15.87;6.63;;;1.60;99.90;;;;;;4994026;28;20262;-61
2022/03/05 12:38:09;;;;;;;9.37;5.07;;;1.70;99.90;;;;;;4993356;28;20204;-60